createdAt,value
2018-04-15T00:00:34.697Z,23.1
2018-04-15T00:10:33.864Z,23.1
2018-04-15T00:20:33.362Z,23.2
2018-04-15T00:30:32.309Z,23.1
2018-04-15T00:40:31.531Z,23.1
2018-04-15T00:50:30.728Z,23.1
2018-04-15T01:00:30.005Z,23.1
2018-04-15T01:10:29.171Z,23.1
2018-04-15T01:20:28.681Z,23.1
2018-04-15T01:30:27.603Z,23.1
2018-04-15T01:40:27.112Z,23.1
2018-04-15T01:50:26.048Z,23.1
2018-04-15T02:00:25.247Z,23.1
2018-04-15T02:10:24.466Z,23
2018-04-15T02:20:23.737Z,23
2018-04-15T02:30:22.901Z,23
2018-04-15T02:40:22.180Z,23
2018-04-15T02:50:21.334Z,22.9
2018-04-15T03:00:20.831Z,22.9
2018-04-15T03:10:19.772Z,22.9
2018-04-15T03:20:19.048Z,22.9
2018-04-15T03:30:18.223Z,22.9
2018-04-15T03:40:17.421Z,22.9
2018-04-15T03:50:16.722Z,22.9
2018-04-15T04:00:15.917Z,22.8
2018-04-15T04:10:15.074Z,22.9
2018-04-15T04:20:14.573Z,22.9
2018-04-15T04:30:13.505Z,22.9
2018-04-15T04:40:12.772Z,22.9
2018-04-15T04:50:11.949Z,22.9
2018-04-15T05:00:11.203Z,22.6
2018-04-15T05:10:10.376Z,22.4
2018-04-15T05:20:09.639Z,22.3
2018-04-15T05:30:08.832Z,22.4
2018-04-15T05:40:08.041Z,22.6
2018-04-15T05:50:07.264Z,22.8
2018-04-15T06:00:06.472Z,22.9
2018-04-15T06:10:05.771Z,23.1
2018-04-15T06:20:04.891Z,23.2
2018-04-15T06:30:04.158Z,23.4
2018-04-15T06:40:03.432Z,23.6
2018-04-15T06:50:02.604Z,23.8
2018-04-15T07:00:01.766Z,23.9
2018-04-15T07:10:00.992Z,24.1
2018-04-15T07:20:00.196Z,24.2
2018-04-15T07:29:59.416Z,24.3
2018-04-15T07:39:58.647Z,24.3
2018-04-15T07:49:58.138Z,24.4
2018-04-15T07:59:57.122Z,24.4
2018-04-15T08:09:56.288Z,24.5
2018-04-15T08:19:55.518Z,24.6
2018-04-15T08:29:54.783Z,24.6
2018-04-15T08:39:53.962Z,24.8
2018-04-15T08:49:53.225Z,24.8
2018-04-15T08:59:52.380Z,24.6
2018-04-15T09:09:51.600Z,24.4
2018-04-15T09:19:50.818Z,24.4
2018-04-15T09:29:50.323Z,24.4
2018-04-15T09:39:49.258Z,24.5
2018-04-15T09:49:48.597Z,24.4
2018-04-15T09:59:47.748Z,24.5
2018-04-15T10:09:46.920Z,24.4
2018-04-15T10:19:46.157Z,24.4
2018-04-15T10:29:45.410Z,24.4
2018-04-15T10:39:44.599Z,24.4
2018-04-15T10:49:43.860Z,24.6
2018-04-15T10:59:43.024Z,24.6
2018-04-15T11:09:42.243Z,24.6
2018-04-15T11:19:41.474Z,24.7
2018-04-15T11:29:40.720Z,24.7
2018-04-15T11:39:39.908Z,24.6
2018-04-15T11:49:39.116Z,24.6
2018-04-15T11:59:38.376Z,24.4
2018-04-15T12:09:37.541Z,24.3
2018-04-15T12:19:36.833Z,24.3
2018-04-15T12:29:35.977Z,24.2
2018-04-15T12:39:35.334Z,24.1
2018-04-15T12:49:34.412Z,24.1
2018-04-15T12:59:34.007Z,24
2018-04-15T13:09:32.959Z,24
2018-04-15T13:19:32.071Z,23.9
2018-04-15T13:29:31.289Z,23.9
2018-04-15T13:39:30.549Z,23.9
2018-04-15T13:49:29.728Z,23.9
2018-04-15T13:59:28.995Z,23.9
2018-04-15T14:09:28.459Z,23.9
2018-04-15T14:19:27.424Z,23.9
2018-04-15T14:29:26.586Z,23.9
2018-04-15T14:39:26.111Z,23.8
2018-04-15T14:49:25.087Z,23.7
2018-04-15T14:59:24.236Z,23.7
2018-04-15T15:09:23.736Z,23.7
2018-04-15T15:19:22.720Z,23.7
2018-04-15T15:29:22.233Z,23.7
2018-04-15T15:39:21.128Z,23.7
2018-04-15T15:49:20.337Z,23.6
2018-04-15T15:59:19.591Z,23.6
2018-04-15T16:09:18.757Z,23.6
2018-04-15T16:19:17.973Z,23.6
2018-04-15T16:29:17.524Z,23.5
2018-04-15T16:39:16.419Z,23.5
2018-04-15T16:49:15.625Z,23.5
2018-04-15T16:59:14.841Z,23.5
2018-04-15T17:09:14.060Z,23.4
2018-04-15T17:19:13.384Z,23.4
2018-04-15T17:29:12.497Z,23.5
2018-04-15T17:39:11.773Z,23.5
2018-04-15T17:49:11.210Z,23.5
2018-04-15T17:59:10.202Z,23.5
2018-04-15T18:09:09.453Z,23.5
2018-04-15T18:19:08.628Z,23.5
2018-04-15T18:29:07.807Z,23.5
2018-04-15T18:39:07.025Z,23.4
2018-04-15T18:49:06.250Z,23.4
2018-04-15T18:59:05.454Z,23.4
2018-04-15T19:09:04.663Z,23.4
2018-04-15T19:19:03.896Z,23.3
2018-04-15T19:29:03.112Z,23.3
2018-04-15T19:39:02.320Z,23.2
2018-04-15T19:49:01.587Z,23.2
2018-04-15T19:59:00.752Z,23.2
2018-04-15T20:09:00.110Z,23.1
2018-04-15T20:18:59.200Z,23.1
2018-04-15T20:28:58.447Z,23.1
2018-04-15T20:38:57.624Z,23
2018-04-15T20:48:56.834Z,23
2018-04-15T20:58:56.049Z,22.9
2018-04-15T21:08:55.552Z,22.9
2018-04-15T21:18:54.488Z,22.9
2018-04-15T21:28:54.048Z,22.8
2018-04-15T21:38:52.928Z,22.8
2018-04-15T21:48:52.143Z,22.9
2018-04-15T21:58:51.635Z,22.9
2018-04-15T22:08:50.581Z,22.9
2018-04-15T22:18:49.783Z,22.9
2018-04-15T22:28:49.075Z,22.8
2018-04-15T22:38:48.220Z,22.8
2018-04-15T22:48:47.438Z,22.8
2018-04-15T22:58:46.763Z,22.8
2018-04-15T23:08:45.868Z,22.7
2018-04-15T23:18:45.093Z,22.7
2018-04-15T23:28:44.314Z,22.6
2018-04-15T23:38:43.521Z,22.6
2018-04-15T23:48:43.086Z,22.6
2018-04-15T23:58:41.953Z,22.5
